Time;durP1;ratioP1;P1;durP2;ratioP2;P2;SDS_P1;SDS_P2;PMS_P1;PMS_P2;Temp;Humidity;BMP_temperature;BMP_pressure;BME280_temperature;BME280_humidity;BME280_pressure;Samples;Min_cycle;Max_cycle;Signal;HPM_P1;HPM_P2
2022/01/13 00:02:20;;;;;;;9.27;7.32;;;;;;;;;;5036077;28;20253;-82
2022/01/13 00:04:47;;;;;;;7.65;6.45;;;;;;;;;;5036626;28;20223;-82
2022/01/13 00:07:15;;;;;;;8.18;6.60;;;;;;;;;;5036925;28;20217;-83
2022/01/13 00:09:43;;;;;;;9.05;6.22;;;;;;;;;;5036514;28;20206;-82
2022/01/13 00:12:12;;;;;;;6.78;5.68;;;;;;;;;;5035623;28;20268;-82
2022/01/13 00:14:53;;;;;;;12.15;7.65;;;;;;;;;;5036126;28;20249;-82
2022/01/13 00:17:44;;;;;;;8.10;6.95;;;;;;;;;;5036026;28;20198;-83
2022/01/13 00:20:30;;;;;;;8.63;6.88;;;;;;;;;;5036314;28;20609;-82
2022/01/13 00:25:42;;;;;;;8.82;5.97;;;;;;;;;;5036191;28;20295;-82
2022/01/13 00:28:16;;;;;;;9.85;6.90;;;;;;;;;;5036657;28;20202;-82
2022/01/13 00:30:44;;;;;;;7.32;6.13;;;;;;;;;;5036136;28;20198;-82
2022/01/13 00:33:15;;;;;;;7.57;5.80;;;;;;;;;;5035917;28;20590;-83
2022/01/13 00:35:42;;;;;;;7.28;5.95;;;;;;;;;;5036243;28;20706;-83
2022/01/13 00:38:09;;;;;;;7.82;6.10;;;;;;;;;;5035682;28;20205;-83
2022/01/13 00:40:37;;;;;;;10.90;6.53;;;;;;;;;;5035676;28;20198;-83
2022/01/13 00:43:04;;;;;;;7.15;6.40;;;;;;;;;;5034522;28;20742;-82
2022/01/13 00:45:31;;;;;;;7.60;6.80;;;;;;;;;;5035499;28;20229;-82
2022/01/13 00:47:58;;;;;;;8.23;6.55;;;;;;;;;;5035141;28;20209;-82
2022/01/13 00:50:27;;;;;;;7.97;6.38;;;;;;;;;;5035038;28;20256;-82
2022/01/13 00:52:54;;;;;;;9.68;5.93;;;;;;;;;;5035289;28;20596;-82
2022/01/13 00:55:31;;;;;;;9.63;6.07;;;;;;;;;;5035031;28;20226;-82
2022/01/13 00:57:59;;;;;;;8.77;6.55;;;;;;;;;;5035000;28;20206;-82
2022/01/13 01:00:28;;;;;;;6.80;6.10;;;;;;;;;;5035389;28;20206;-82
2022/01/13 01:02:56;;;;;;;9.38;7.28;;;;;;;;;;5034446;28;20222;-82
2022/01/13 01:05:23;;;;;;;8.75;7.28;;;;;;;;;;5034701;28;20218;-82
2022/01/13 01:07:52;;;;;;;6.82;5.97;;;;;;;;;;5035215;28;20297;-82
2022/01/13 01:10:21;;;;;;;6.85;5.32;;;;;;;;;;5034650;28;20209;-82
2022/01/13 01:12:48;;;;;;;6.55;5.85;;;;;;;;;;5035161;28;20289;-82
2022/01/13 01:15:15;;;;;;;7.28;5.93;;;;;;;;;;5034848;28;20582;-82
2022/01/13 01:17:48;;;;;;;7.70;6.88;;;;;;;;;;5034738;28;20207;-82
2022/01/13 01:20:16;;;;;;;6.70;5.85;;;;;;;;;;5035067;28;20206;-82
2022/01/13 01:22:57;;;;;;;11.10;7.90;;;;;;;;;;5034686;28;20221;-82
2022/01/13 01:25:41;;;;;;;8.82;6.60;;;;;;;;;;5034250;28;20237;-82
2022/01/13 01:28:15;;;;;;;8.10;6.90;;;;;;;;;;5034018;28;20625;-82
2022/01/13 01:30:45;;;;;;;8.48;6.20;;;;;;;;;;5035028;28;20234;-82
2022/01/13 01:33:16;;;;;;;8.10;6.78;;;;;;;;;;5034229;28;20202;-82
2022/01/13 01:35:43;;;;;;;8.68;5.43;;;;;;;;;;5033745;28;20222;-82
2022/01/13 01:38:10;;;;;;;6.85;6.18;;;;;;;;;;5034797;28;20232;-82
2022/01/13 01:40:39;;;;;;;5.72;5.05;;;;;;;;;;5034691;28;20198;-82
2022/01/13 01:43:06;;;;;;;6.65;5.70;;;;;;;;;;5034354;28;20222;-82
2022/01/13 01:45:43;;;;;;;11.75;5.70;;;;;;;;;;5034235;28;20217;-82
2022/01/13 01:48:11;;;;;;;6.10;5.50;;;;;;;;;;5034875;28;20220;-82
2022/01/13 01:50:38;;;;;;;5.78;4.80;;;;;;;;;;5034172;28;20210;-82
2022/01/13 01:53:07;;;;;;;4.18;3.88;;;;;;;;;;5034127;28;20206;-83
2022/01/13 01:55:35;;;;;;;6.82;5.18;;;;;;;;;;5034274;28;20249;-82
2022/01/13 01:58:05;;;;;;;4.22;3.83;;;;;;;;;;5037047;28;20246;-82
2022/01/13 02:00:33;;;;;;;5.03;4.47;;;;;;;;;;5038698;28;20692;-81
2022/01/13 02:03:01;;;;;;;3.95;2.92;;;;;;;;;;5038109;28;20698;-82
2022/01/13 02:05:28;;;;;;;3.65;3.03;;;;;;;;;;5038437;28;20222;-82
2022/01/13 02:07:55;;;;;;;6.20;3.80;;;;;;;;;;5038627;28;20213;-82
2022/01/13 02:10:23;;;;;;;5.43;4.93;;;;;;;;;;5038150;28;20673;-82
2022/01/13 02:12:59;;;;;;;3.80;3.47;;;;;;;;;;5038020;28;20198;-82
2022/01/13 02:15:31;;;;;;;4.05;3.13;;;;;;;;;;5037673;28;20229;-82
2022/01/13 02:18:02;;;;;;;3.78;3.45;;;;;;;;;;5038228;28;20198;-82
2022/01/13 02:20:50;;;;;;;2.78;2.58;;;;;;;;;;5038896;28;20202;-82
2022/01/13 02:23:36;;;;;;;3.25;2.90;;;;;;;;;;5037769;28;20606;-82
2022/01/13 02:26:07;;;;;;;3.92;3.55;;;;;;;;;;5038265;28;20230;-82
2022/01/13 02:28:36;;;;;;;5.60;4.47;;;;;;;;;;5038470;28;20202;-82
2022/01/13 02:31:04;;;;;;;5.95;5.00;;;;;;;;;;5038083;28;20257;-82
2022/01/13 02:33:31;;;;;;;6.22;5.10;;;;;;;;;;5037501;28;20627;-83
2022/01/13 02:36:00;;;;;;;6.22;5.63;;;;;;;;;;5037646;28;20222;-82
2022/01/13 02:38:27;;;;;;;9.00;5.70;;;;;;;;;;5037960;28;20202;-82
2022/01/13 02:40:56;;;;;;;10.02;7.80;;;;;;;;;;5037250;28;20233;-81
2022/01/13 02:43:57;;;;;;;9.07;6.97;;;;;;;;;;5037571;28;20230;-82
2022/01/13 02:46:43;;;;;;;6.72;5.78;;;;;;;;;;5036929;28;20316;-82
2022/01/13 02:49:13;;;;;;;5.68;4.13;;;;;;;;;;5037478;28;20232;-82
2022/01/13 02:51:44;;;;;;;7.32;4.70;;;;;;;;;;5037478;28;20210;-81
2022/01/13 02:54:12;;;;;;;6.30;5.70;;;;;;;;;;5037664;28;20686;-82
2022/01/13 02:56:41;;;;;;;7.25;5.93;;;;;;;;;;5037207;28;20272;-81
2022/01/13 02:59:09;;;;;;;7.25;5.95;;;;;;;;;;5037950;28;20218;-82
2022/01/13 03:01:36;;;;;;;7.15;5.47;;;;;;;;;;5037141;28;20198;-82
2022/01/13 03:04:07;;;;;;;7.50;6.40;;;;;;;;;;5037259;28;20222;-82
2022/01/13 03:06:36;;;;;;;5.88;4.60;;;;;;;;;;5037437;28;20277;-82
2022/01/13 03:09:07;;;;;;;6.13;4.55;;;;;;;;;;5037075;28;20669;-82
2022/01/13 03:11:36;;;;;;;3.88;3.47;;;;;;;;;;5037212;28;20547;-82
2022/01/13 03:14:05;;;;;;;3.63;3.33;;;;;;;;;;5037486;28;20205;-82
2022/01/13 03:16:33;;;;;;;5.05;4.43;;;;;;;;;;5037306;28;20249;-82
2022/01/13 03:19:00;;;;;;;3.83;3.47;;;;;;;;;;5036868;28;20248;-82
2022/01/13 03:21:28;;;;;;;5.03;4.53;;;;;;;;;;5037276;28;20339;-82
2022/01/13 03:23:55;;;;;;;5.47;4.97;;;;;;;;;;5036657;28;20694;-82
2022/01/13 03:26:24;;;;;;;4.00;3.38;;;;;;;;;;5036809;28;20230;-82
2022/01/13 03:28:55;;;;;;;6.75;4.70;;;;;;;;;;5037099;28;20225;-82
2022/01/13 03:31:24;;;;;;;5.53;4.30;;;;;;;;;;5037022;28;20202;-82
2022/01/13 03:33:53;;;;;;;5.43;4.93;;;;;;;;;;5036732;28;20202;-82
2022/01/13 03:36:20;;;;;;;7.72;5.60;;;;;;;;;;5036959;28;20222;-82
2022/01/13 03:38:48;;;;;;;7.75;6.10;;;;;;;;;;5036592;28;20198;-82
2022/01/13 03:41:15;;;;;;;7.47;6.60;;;;;;;;;;5036322;28;20267;-82
2022/01/13 03:43:44;;;;;;;7.57;6.15;;;;;;;;;;5036578;28;20199;-82
2022/01/13 03:46:14;;;;;;;8.50;6.05;;;;;;;;;;5036130;28;20226;-82
2022/01/13 03:48:42;;;;;;;7.47;5.75;;;;;;;;;;5037368;28;20253;-82
2022/01/13 03:51:10;;;;;;;7.18;6.35;;;;;;;;;;5036432;28;20203;-82
2022/01/13 03:54:33;;;;;;;6.43;5.82;;;;;;;;;;5036326;28;20202;-84
2022/01/13 03:58:11;;;;;;;9.30;7.95;;;;;;;;;;5028385;28;20202;-82
2022/01/13 04:01:35;;;;;;;8.02;6.65;;;;;;;;;;5036457;28;20209;-82
2022/01/13 04:04:03;;;;;;;9.15;5.97;;;;;;;;;;4994156;28;20210;-83
2022/01/13 04:06:42;;;;;;;6.13;5.53;;;;;;;;;;5036611;28;20641;-83
2022/01/13 04:09:21;;;;;;;7.25;6.50;;;;;;;;;;5036450;28;20206;-83
2022/01/13 04:11:48;;;;;;;7.15;6.45;;;;;;;;;;5036718;28;20218;-83
2022/01/13 04:14:15;;;;;;;10.90;7.43;;;;;;;;;;5036925;28;20256;-83
2022/01/13 04:16:44;;;;;;;7.47;6.65;;;;;;;;;;5036367;28;20230;-82
2022/01/13 04:19:11;;;;;;;6.70;5.85;;;;;;;;;;5036520;28;20206;-83
2022/01/13 04:21:40;;;;;;;6.07;5.05;;;;;;;;;;5035624;28;20217;-83
2022/01/13 04:24:12;;;;;;;4.22;3.83;;;;;;;;;;5036366;28;20554;-83
2022/01/13 04:26:42;;;;;;;4.68;4.28;;;;;;;;;;5036159;28;20230;-83
2022/01/13 04:29:20;;;;;;;6.80;6.10;;;;;;;;;;5036335;28;20225;-83
2022/01/13 04:31:51;;;;;;;7.07;6.05;;;;;;;;;;5036549;28;20207;-83
2022/01/13 04:34:19;;;;;;;9.27;6.55;;;;;;;;;;5036466;28;20202;-83
2022/01/13 04:36:47;;;;;;;6.35;5.60;;;;;;;;;;5036544;28;20194;-82
2022/01/13 04:39:18;;;;;;;7.75;6.95;;;;;;;;;;5036210;28;20206;-83
2022/01/13 04:41:47;;;;;;;6.57;5.97;;;;;;;;;;5035862;28;20195;-82
2022/01/13 04:44:17;;;;;;;6.03;5.15;;;;;;;;;;5036036;28;20202;-82
2022/01/13 04:46:46;;;;;;;7.97;6.15;;;;;;;;;;5036274;28;20233;-82
2022/01/13 04:49:16;;;;;;;12.32;8.18;;;;;;;;;;5036769;28;20209;-82
2022/01/13 04:51:43;;;;;;;7.25;6.47;;;;;;;;;;5035883;28;20289;-82
2022/01/13 04:54:11;;;;;;;5.55;5.03;;;;;;;;;;5035916;28;20225;-82
2022/01/13 04:56:42;;;;;;;5.72;4.88;;;;;;;;;;5036546;28;20229;-83
2022/01/13 04:59:10;;;;;;;6.30;5.13;;;;;;;;;;5036432;28;20213;-82
2022/01/13 05:01:39;;;;;;;4.47;4.03;;;;;;;;;;5035774;28;20248;-83
2022/01/13 05:04:07;;;;;;;7.78;5.05;;;;;;;;;;5035927;28;20202;-82
2022/01/13 05:06:37;;;;;;;5.75;4.90;;;;;;;;;;5034840;28;20229;-82
2022/01/13 05:09:05;;;;;;;5.47;4.93;;;;;;;;;;5035629;28;20670;-82
2022/01/13 05:11:32;;;;;;;7.97;6.35;;;;;;;;;;5035112;28;20658;-82
2022/01/13 05:14:00;;;;;;;8.23;6.55;;;;;;;;;;5034772;28;20209;-82
2022/01/13 05:16:33;;;;;;;7.13;6.32;;;;;;;;;;5035289;28;20225;-82
2022/01/13 05:19:12;;;;;;;5.38;4.93;;;;;;;;;;5035218;28;20206;-82
2022/01/13 05:22:05;;;;;;;5.00;4.28;;;;;;;;;;5035645;28;20202;-82
2022/01/13 05:24:32;;;;;;;5.63;4.25;;;;;;;;;;5034952;28;20285;-82
2022/01/13 05:26:59;;;;;;;5.00;3.90;;;;;;;;;;5035177;28;20230;-83
2022/01/13 05:29:27;;;;;;;6.05;5.35;;;;;;;;;;5035385;28;20685;-82
2022/01/13 05:31:54;;;;;;;4.43;4.03;;;;;;;;;;5034207;28;20194;-82
2022/01/13 05:34:21;;;;;;;5.78;5.22;;;;;;;;;;5035311;28;20293;-82
2022/01/13 05:36:50;;;;;;;5.97;5.38;;;;;;;;;;5035327;28;20612;-82
2022/01/13 05:39:17;;;;;;;6.15;5.30;;;;;;;;;;5034957;28;20202;-82
2022/01/13 05:41:45;;;;;;;4.00;3.50;;;;;;;;;;5034736;28;20194;-82
2022/01/13 05:44:12;;;;;;;4.22;3.08;;;;;;;;;;5034938;28;20689;-82
2022/01/13 05:46:39;;;;;;;5.38;4.30;;;;;;;;;;5035256;28;20698;-83
2022/01/13 05:49:07;;;;;;;4.30;3.90;;;;;;;;;;5035522;28;20206;-85
2022/01/13 05:51:34;;;;;;;3.88;3.47;;;;;;;;;;5038945;28;20296;-85
2022/01/13 05:54:03;;;;;;;6.93;5.32;;;;;;;;;;5035191;28;20206;-84
2022/01/13 05:56:30;;;;;;;5.65;5.07;;;;;;;;;;5034724;28;20249;-85
2022/01/13 05:58:57;;;;;;;3.78;3.47;;;;;;;;;;5035396;28;20288;-85
2022/01/13 06:01:25;;;;;;;4.18;3.78;;;;;;;;;;5034565;28;20198;-85
2022/01/13 06:03:52;;;;;;;4.30;3.60;;;;;;;;;;5034645;28;20198;-85
2022/01/13 06:06:19;;;;;;;6.70;6.03;;;;;;;;;;5035259;28;20377;-84
2022/01/13 06:08:47;;;;;;;6.47;5.85;;;;;;;;;;5035060;28;20226;-84
2022/01/13 06:11:21;;;;;;;8.77;7.43;;;;;;;;;;5034673;28;20206;-84
2022/01/13 06:13:48;;;;;;;5.93;4.95;;;;;;;;;;5034854;28;20191;-85
2022/01/13 06:16:15;;;;;;;6.03;5.53;;;;;;;;;;5035232;28;20225;-84
2022/01/13 06:18:43;;;;;;;5.28;4.47;;;;;;;;;;5034822;28;20678;-84
2022/01/13 06:21:10;;;;;;;7.70;7.00;;;;;;;;;;5035194;28;20202;-85
2022/01/13 06:23:38;;;;;;;8.15;7.35;;;;;;;;;;5034837;28;20209;-85
2022/01/13 06:26:06;;;;;;;5.70;5.10;;;;;;;;;;5034782;28;20233;-84
2022/01/13 06:28:35;;;;;;;6.47;5.85;;;;;;;;;;5035124;28;20220;-84
2022/01/13 06:31:02;;;;;;;5.53;5.03;;;;;;;;;;5034738;28;20643;-84
2022/01/13 06:33:30;;;;;;;5.63;5.03;;;;;;;;;;5034960;28;20198;-85
2022/01/13 06:35:57;;;;;;;6.40;5.75;;;;;;;;;;5034953;28;20222;-84
2022/01/13 06:38:24;;;;;;;11.65;8.63;;;;;;;;;;5034620;28;20561;-84
2022/01/13 06:40:53;;;;;;;12.88;9.27;;;;;;;;;;5034680;28;20689;-84
2022/01/13 06:43:20;;;;;;;9.65;8.65;;;;;;;;;;5035694;28;20301;-84
2022/01/13 06:45:50;;;;;;;11.70;10.15;;;;;;;;;;5038561;28;20222;-84
2022/01/13 06:48:19;;;;;;;12.60;10.98;;;;;;;;;;5038613;28;20289;-84
2022/01/13 06:50:46;;;;;;;10.48;8.43;;;;;;;;;;5039367;28;20210;-84
2022/01/13 06:53:14;;;;;;;11.18;8.75;;;;;;;;;;5039583;28;20217;-85
2022/01/13 06:55:41;;;;;;;11.10;9.05;;;;;;;;;;5039475;28;20222;-85
2022/01/13 06:58:08;;;;;;;11.80;9.43;;;;;;;;;;5039998;28;20206;-84
2022/01/13 07:00:37;;;;;;;11.57;9.75;;;;;;;;;;5039219;28;20210;-84
2022/01/13 07:03:05;;;;;;;11.05;9.23;;;;;;;;;;5039539;28;20198;-84
2022/01/13 07:05:33;;;;;;;10.90;8.50;;;;;;;;;;5038384;28;20309;-84
2022/01/13 07:08:00;;;;;;;9.23;6.32;;;;;;;;;;5038479;28;20198;-84
2022/01/13 07:10:28;;;;;;;8.45;7.60;;;;;;;;;;5043881;28;20213;-85
2022/01/13 07:12:55;;;;;;;7.25;6.28;;;;;;;;;;5046078;28;20572;-84
2022/01/13 07:15:23;;;;;;;4.80;4.20;;;;;;;;;;5040878;28;20214;-85
2022/01/13 07:17:50;;;;;;;7.13;5.25;;;;;;;;;;5040704;28;20202;-85
2022/01/13 07:20:19;;;;;;;6.20;5.60;;;;;;;;;;5040037;28;20202;-86
2022/01/13 07:22:46;;;;;;;5.18;4.68;;;;;;;;;;5039875;28;20213;-85
2022/01/13 07:25:14;;;;;;;8.13;7.40;;;;;;;;;;5039525;28;20238;-85
2022/01/13 07:27:42;;;;;;;27.70;17.52;;;;;;;;;;5039145;28;20233;-85
2022/01/13 07:30:11;;;;;;;15.00;10.18;;;;;;;;;;5040006;28;20206;-86
2022/01/13 07:32:38;;;;;;;9.48;7.97;;;;;;;;;;5040230;28;20205;-85
2022/01/13 07:35:08;;;;;;;9.10;7.82;;;;;;;;;;5039489;28;20713;-85
2022/01/13 07:37:37;;;;;;;8.52;7.63;;;;;;;;;;5039627;28;20252;-85
2022/01/13 07:40:08;;;;;;;8.65;6.47;;;;;;;;;;5040208;28;20205;-86
2022/01/13 07:42:41;;;;;;;9.50;5.70;;;;;;;;;;5021039;28;20573;-85
2022/01/13 07:45:53;;;;;;;6.15;5.55;;;;;;;;;;5015890;28;20299;-87
2022/01/13 07:48:21;;;;;;;6.72;5.05;;;;;;;;;;4985827;28;20227;-84
2022/01/13 07:50:49;;;;;;;5.15;4.55;;;;;;;;;;4999692;28;20200;-84
2022/01/13 07:53:18;;;;;;;7.43;6.32;;;;;;;;;;5000030;28;20671;-84
2022/01/13 07:55:46;;;;;;;9.98;8.05;;;;;;;;;;4998717;28;20220;-84
2022/01/13 07:58:13;;;;;;;9.05;7.32;;;;;;;;;;4999348;28;20203;-84
2022/01/13 08:00:42;;;;;;;10.13;8.32;;;;;;;;;;4999464;28;20766;-84
2022/01/13 08:03:09;;;;;;;8.50;6.38;;;;;;;;;;5001435;28;20231;-87
2022/01/13 08:05:37;;;;;;;7.28;5.22;;;;;;;;;;5006485;28;20626;-87
2022/01/13 08:08:05;;;;;;;5.82;5.13;;;;;;;;;;5010608;28;20219;-85
2022/01/13 08:10:37;;;;;;;5.47;4.97;;;;;;;;;;5012681;28;20208;-85
2022/01/13 08:13:05;;;;;;;7.20;6.38;;;;;;;;;;5028658;28;20211;-85
2022/01/13 08:15:35;;;;;;;7.65;6.85;;;;;;;;;;5026223;28;20242;-85
2022/01/13 08:20:47;;;;;;;6.80;6.20;;;;;;;;;;5023927;28;20249;-86
2022/01/13 08:23:15;;;;;;;10.13;9.13;;;;;;;;;;5022356;28;20203;-85
2022/01/13 08:25:44;;;;;;;10.68;8.52;;;;;;;;;;5022550;28;20625;-85
2022/01/13 08:28:11;;;;;;;10.07;7.70;;;;;;;;;;5021526;28;20227;-85
2022/01/13 08:30:39;;;;;;;10.27;8.82;;;;;;;;;;5020948;28;20211;-85
2022/01/13 08:33:07;;;;;;;7.50;6.70;;;;;;;;;;5020959;28;20221;-85
2022/01/13 08:35:35;;;;;;;4.95;4.45;;;;;;;;;;5021561;28;20222;-85
2022/01/13 08:38:08;;;;;;;6.45;5.65;;;;;;;;;;5020684;28;20202;-86
2022/01/13 08:40:35;;;;;;;6.88;6.18;;;;;;;;;;5020780;28;20211;-85
2022/01/13 08:43:04;;;;;;;9.43;7.32;;;;;;;;;;5018799;28;20207;-85
2022/01/13 08:45:32;;;;;;;6.47;5.50;;;;;;;;;;5018298;28;20215;-85
2022/01/13 08:47:59;;;;;;;6.35;5.75;;;;;;;;;;5018922;28;20234;-85
2022/01/13 08:50:27;;;;;;;6.53;4.60;;;;;;;;;;5018730;28;20202;-85
2022/01/13 08:52:55;;;;;;;4.93;4.53;;;;;;;;;;5019345;28;20210;-86
2022/01/13 08:55:22;;;;;;;6.05;4.82;;;;;;;;;;5019730;28;20238;-86
2022/01/13 08:57:49;;;;;;;7.65;6.85;;;;;;;;;;5019695;28;20207;-85
2022/01/13 09:00:18;;;;;;;7.05;6.13;;;;;;;;;;5019678;28;20745;-85
2022/01/13 09:02:46;;;;;;;6.60;5.97;;;;;;;;;;5018239;28;20199;-85
2022/01/13 09:05:15;;;;;;;5.68;5.05;;;;;;;;;;5017716;28;20222;-84
2022/01/13 09:07:43;;;;;;;7.55;6.28;;;;;;;;;;5016678;28;20235;-83
2022/01/13 09:10:12;;;;;;;7.28;5.85;;;;;;;;;;5017662;28;20213;-84
2022/01/13 09:12:40;;;;;;;6.05;5.30;;;;;;;;;;5017270;28;20198;-86
2022/01/13 09:15:18;;;;;;;7.03;6.32;;;;;;;;;;5017993;28;20274;-86
2022/01/13 09:17:51;;;;;;;8.05;6.38;;;;;;;;;;5017079;28;20203;-85
2022/01/13 09:20:20;;;;;;;8.50;7.40;;;;;;;;;;5016904;28;20214;-85
2022/01/13 09:22:47;;;;;;;10.07;7.82;;;;;;;;;;5016854;28;20199;-85
2022/01/13 09:25:14;;;;;;;6.88;6.22;;;;;;;;;;5016343;28;20287;-85
2022/01/13 09:27:43;;;;;;;6.00;5.40;;;;;;;;;;5016540;28;20215;-84
2022/01/13 09:30:15;;;;;;;6.22;5.55;;;;;;;;;;5016279;28;20698;-84
2022/01/13 09:32:45;;;;;;;6.45;5.25;;;;;;;;;;5016608;28;20195;-84
2022/01/13 09:35:14;;;;;;;5.85;4.80;;;;;;;;;;5017507;28;20219;-84
2022/01/13 09:37:42;;;;;;;5.88;5.28;;;;;;;;;;5017079;28;20205;-84
2022/01/13 09:40:12;;;;;;;6.22;5.50;;;;;;;;;;5016220;28;20206;-84
2022/01/13 09:42:42;;;;;;;7.10;6.40;;;;;;;;;;5016833;28;20252;-85
2022/01/13 09:45:12;;;;;;;10.20;7.93;;;;;;;;;;5016409;28;20666;-84
2022/01/13 09:47:55;;;;;;;7.13;6.43;;;;;;;;;;5019521;28;20257;-87
2022/01/13 09:50:41;;;;;;;7.35;5.72;;;;;;;;;;5018727;28;20202;-87
2022/01/13 09:53:08;;;;;;;7.10;6.40;;;;;;;;;;5017239;28;20222;-85
2022/01/13 09:55:54;;;;;;;7.55;6.78;;;;;;;;;;5015896;28;20269;-85
2022/01/13 10:25:43;;;;;;;11.80;8.48;;;;;;;;;;4778539;29;20287;-88
2022/01/13 10:28:17;;;;;;;11.68;9.30;;;;;;;;;;4889706;28;20738;-87
2022/01/13 10:30:47;;;;;;;7.68;6.78;;;;;;;;;;4969490;28;20686;-85
2022/01/13 10:33:17;;;;;;;9.68;7.47;;;;;;;;;;5017581;28;20650;-85
2022/01/13 10:35:45;;;;;;;10.70;9.60;;;;;;;;;;5017245;28;20219;-86
2022/01/13 10:38:16;;;;;;;11.82;9.02;;;;;;;;;;5017514;28;20207;-86
2022/01/13 10:40:47;;;;;;;11.93;9.55;;;;;;;;;;5017493;28;20285;-86
2022/01/13 10:43:16;;;;;;;9.98;8.48;;;;;;;;;;5017229;28;20657;-86
2022/01/13 10:45:47;;;;;;;11.68;9.90;;;;;;;;;;5017111;28;20597;-86
2022/01/13 10:48:19;;;;;;;12.00;10.63;;;;;;;;;;5016861;28;20258;-86
2022/01/13 10:50:50;;;;;;;10.40;8.63;;;;;;;;;;5016692;28;20207;-86
2022/01/13 10:53:25;;;;;;;9.98;7.80;;;;;;;;;;5016475;28;20659;-86
2022/01/13 10:55:58;;;;;;;9.98;7.82;;;;;;;;;;5018658;28;20222;-87
2022/01/13 10:58:27;;;;;;;12.85;7.90;;;;;;;;;;5017657;28;20582;-86
2022/01/13 11:00:56;;;;;;;9.98;7.43;;;;;;;;;;5016744;28;20207;-86
2022/01/13 11:03:26;;;;;;;11.23;8.43;;;;;;;;;;5016430;28;20199;-86
2022/01/13 11:05:56;;;;;;;12.98;9.65;;;;;;;;;;5016089;28;20223;-85
2022/01/13 11:08:27;;;;;;;11.50;9.00;;;;;;;;;;5017980;28;20234;-85
2022/01/13 11:11:45;;;;;;;10.48;8.52;;;;;;;;;;5019752;28;20207;-86
2022/01/13 11:14:24;;;;;;;9.02;7.40;;;;;;;;;;5022314;28;20667;-85
2022/01/13 11:16:52;;;;;;;11.10;8.27;;;;;;;;;;5022260;28;20234;-84
2022/01/13 11:19:22;;;;;;;9.98;8.27;;;;;;;;;;5020376;28;20393;-85
2022/01/13 11:21:51;;;;;;;10.10;8.65;;;;;;;;;;5023780;28;20210;-85
2022/01/13 11:24:19;;;;;;;12.57;10.02;;;;;;;;;;5022721;28;20266;-85
2022/01/13 11:26:48;;;;;;;11.82;10.35;;;;;;;;;;5022133;28;20393;-84
2022/01/13 11:29:16;;;;;;;10.07;8.75;;;;;;;;;;5019708;28;20865;-86
2022/01/13 11:31:44;;;;;;;9.82;8.48;;;;;;;;;;5019574;28;20262;-85
2022/01/13 11:34:11;;;;;;;9.30;8.32;;;;;;;;;;5019173;28;20207;-85
2022/01/13 11:36:40;;;;;;;10.60;8.32;;;;;;;;;;5020932;28;20223;-86
2022/01/13 11:39:08;;;;;;;9.77;8.15;;;;;;;;;;5021954;28;20269;-86
2022/01/13 11:42:07;;;;;;;9.43;8.40;;;;;;;;;;5022080;28;20590;-85
2022/01/13 11:44:41;;;;;;;10.50;8.00;;;;;;;;;;5021207;28;20210;-85
2022/01/13 11:47:22;;;;;;;10.38;8.15;;;;;;;;;;5021039;28;20198;-84
2022/01/13 11:49:59;;;;;;;9.05;6.63;;;;;;;;;;5020986;28;20223;-83
2022/01/13 11:52:41;;;;;;;10.43;8.27;;;;;;;;;;5019620;28;20211;-84
2022/01/13 11:55:28;;;;;;;8.30;6.60;;;;;;;;;;5019869;28;20234;-86
2022/01/13 11:58:12;;;;;;;10.82;8.18;;;;;;;;;;5021924;28;20202;-86
2022/01/13 12:00:41;;;;;;;7.95;6.10;;;;;;;;;;5022667;28;20567;-84
2022/01/13 12:03:31;;;;;;;10.55;8.63;;;;;;;;;;5021296;28;20211;-84
2022/01/13 12:06:00;;;;;;;9.68;7.65;;;;;;;;;;5019150;28;20266;-83
2022/01/13 12:08:40;;;;;;;11.45;9.00;;;;;;;;;;5023424;28;20207;-84
2022/01/13 12:11:09;;;;;;;13.07;9.07;;;;;;;;;;5023932;28;20202;-83
2022/01/13 12:13:46;;;;;;;9.52;7.30;;;;;;;;;;5022140;28;20366;-84
2022/01/13 12:16:14;;;;;;;15.35;11.45;;;;;;;;;;5022694;28;20242;-84
2022/01/13 12:19:13;;;;;;;10.95;8.45;;;;;;;;;;5022725;28;20635;-84
2022/01/13 12:21:46;;;;;;;8.70;7.28;;;;;;;;;;5023061;28;20210;-82
2022/01/13 12:24:18;;;;;;;10.02;8.50;;;;;;;;;;5023362;28;20328;-84
2022/01/13 12:26:48;;;;;;;9.98;7.75;;;;;;;;;;5022435;28;20261;-85
2022/01/13 12:29:21;;;;;;;11.68;8.30;;;;;;;;;;5022995;28;20223;-83
2022/01/13 12:31:54;;;;;;;7.43;6.53;;;;;;;;;;5022153;28;20677;-85
2022/01/13 12:34:50;;;;;;;7.05;5.15;;;;;;;;;;5023440;28;20690;-84
2022/01/13 12:37:30;;;;;;;9.88;8.60;;;;;;;;;;5023117;28;20237;-84
2022/01/13 12:40:07;;;;;;;10.88;8.57;;;;;;;;;;5022375;28;20234;-83
2022/01/13 12:42:41;;;;;;;11.35;8.35;;;;;;;;;;5021862;28;20257;-83
2022/01/13 12:45:29;;;;;;;10.82;8.32;;;;;;;;;;5023004;28;20236;-84
2022/01/13 12:47:58;;;;;;;8.50;7.10;;;;;;;;;;5023058;28;20274;-84
2022/01/13 12:50:30;;;;;;;8.80;6.70;;;;;;;;;;5021913;28;20234;-84
2022/01/13 12:53:07;;;;;;;10.77;8.77;;;;;;;;;;5022617;28;20199;-84
2022/01/13 12:55:35;;;;;;;11.35;9.07;;;;;;;;;;5022220;28;20669;-84
2022/01/13 12:58:02;;;;;;;12.50;9.80;;;;;;;;;;5021934;28;20203;-84
2022/01/13 13:00:31;;;;;;;9.75;7.07;;;;;;;;;;5022709;28;20209;-82
2022/01/13 13:03:08;;;;;;;12.85;10.10;;;;;;;;;;5022515;28;20218;-84
2022/01/13 13:05:39;;;;;;;11.77;8.90;;;;;;;;;;5022238;28;20218;-84
2022/01/13 13:08:08;;;;;;;8.98;7.05;;;;;;;;;;5022516;28;20211;-84
2022/01/13 13:10:36;;;;;;;9.45;6.78;;;;;;;;;;5022461;28;20227;-82
2022/01/13 13:13:04;;;;;;;8.38;7.22;;;;;;;;;;5023528;28;20213;-84
2022/01/13 13:15:41;;;;;;;11.43;8.63;;;;;;;;;;5024636;28;20231;-84
2022/01/13 13:18:10;;;;;;;12.85;9.77;;;;;;;;;;5024603;28;20214;-84
2022/01/13 13:20:40;;;;;;;12.18;9.25;;;;;;;;;;5024879;28;20290;-84
2022/01/13 13:23:10;;;;;;;13.07;10.80;;;;;;;;;;5024532;28;20606;-84
2022/01/13 13:25:42;;;;;;;11.95;9.98;;;;;;;;;;5024503;28;20266;-85
2022/01/13 13:28:26;;;;;;;10.73;8.57;;;;;;;;;;5025387;28;20596;-84
2022/01/13 13:30:57;;;;;;;12.68;9.98;;;;;;;;;;5023708;28;20237;-84
2022/01/13 13:33:36;;;;;;;10.10;8.00;;;;;;;;;;5024184;28;20230;-85
2022/01/13 13:36:06;;;;;;;11.57;7.72;;;;;;;;;;5023720;28;20245;-85
2022/01/13 13:38:45;;;;;;;8.15;7.10;;;;;;;;;;5024258;28;20737;-85
2022/01/13 13:41:13;;;;;;;8.18;7.32;;;;;;;;;;5024789;28;20210;-85
2022/01/13 13:43:40;;;;;;;10.13;9.10;;;;;;;;;;5024644;28;20203;-85
2022/01/13 13:46:11;;;;;;;8.32;7.15;;;;;;;;;;5024868;28;20230;-85
2022/01/13 13:48:42;;;;;;;10.43;8.27;;;;;;;;;;5025111;28;20211;-85
2022/01/13 13:51:12;;;;;;;11.55;8.40;;;;;;;;;;5025924;28;20227;-85
2022/01/13 13:54:01;;;;;;;10.65;8.07;;;;;;;;;;5021382;28;20214;-84
2022/01/13 13:56:28;;;;;;;9.68;8.68;;;;;;;;;;5016463;28;20226;-85
2022/01/13 13:58:56;;;;;;;10.98;9.43;;;;;;;;;;5016094;28;20210;-84
2022/01/13 14:01:25;;;;;;;8.50;7.00;;;;;;;;;;5016160;28;20202;-84
2022/01/13 14:03:53;;;;;;;8.60;6.65;;;;;;;;;;5016200;28;20211;-84
2022/01/13 14:06:42;;;;;;;7.90;7.07;;;;;;;;;;5017465;28;20273;-86
2022/01/13 14:09:11;;;;;;;7.40;6.57;;;;;;;;;;5014675;28;20294;-83
2022/01/13 14:11:47;;;;;;;9.18;7.72;;;;;;;;;;5013340;28;20230;-82
2022/01/13 14:14:17;;;;;;;8.27;7.47;;;;;;;;;;5013992;28;20257;-85
2022/01/13 14:16:51;;;;;;;7.40;6.47;;;;;;;;;;5015335;28;20785;-85
2022/01/13 14:20:01;;;;;;;8.93;7.70;;;;;;;;;;5015555;28;20690;-90
2022/01/13 14:23:06;;;;;;;8.57;7.40;;;;;;;;;;4936129;29;20696;-86
2022/01/13 14:26:08;;;;;;;6.18;5.57;;;;;;;;;;4935988;29;20610;-85
2022/01/13 14:29:13;;;;;;;7.35;6.55;;;;;;;;;;4936178;29;20220;-85
2022/01/13 14:31:50;;;;;;;10.27;7.97;;;;;;;;;;4986513;28;20713;-85
2022/01/13 14:34:28;;;;;;;13.10;9.65;;;;;;;;;;5012274;28;20211;-83
2022/01/13 14:37:57;;;;;;;7.20;6.03;;;;;;;;;;5014943;28;20741;-86
2022/01/13 14:40:27;;;;;;;6.50;5.30;;;;;;;;;;5013649;28;20231;-83
2022/01/13 14:43:07;;;;;;;5.85;4.95;;;;;;;;;;5012635;28;20206;-82
2022/01/13 14:45:34;;;;;;;10.02;8.10;;;;;;;;;;5012773;28;20262;-82
2022/01/13 14:48:03;;;;;;;8.43;7.20;;;;;;;;;;5012783;28;20350;-84
2022/01/13 14:50:31;;;;;;;6.18;5.53;;;;;;;;;;5012401;28;20706;-82
2022/01/13 14:52:58;;;;;;;7.40;6.22;;;;;;;;;;5012208;28;20202;-82
2022/01/13 14:55:25;;;;;;;9.43;7.95;;;;;;;;;;5012243;28;20772;-82
2022/01/13 14:57:55;;;;;;;12.77;8.75;;;;;;;;;;5012717;28;20199;-83
2022/01/13 15:00:23;;;;;;;10.07;7.80;;;;;;;;;;5013164;28;20199;-82
2022/01/13 15:02:50;;;;;;;10.77;8.90;;;;;;;;;;5013312;28;20211;-83
2022/01/13 15:05:19;;;;;;;10.75;8.48;;;;;;;;;;5015465;28;20222;-83
2022/01/13 15:07:47;;;;;;;12.75;9.07;;;;;;;;;;5016164;28;20753;-82
2022/01/13 15:10:14;;;;;;;13.70;10.25;;;;;;;;;;5015576;28;20214;-82
2022/01/13 15:12:41;;;;;;;11.18;8.23;;;;;;;;;;5015866;28;20202;-82
2022/01/13 15:15:10;;;;;;;10.52;8.40;;;;;;;;;;5016065;28;20223;-83
2022/01/13 15:17:37;;;;;;;7.15;6.25;;;;;;;;;;5016065;28;20222;-82
2022/01/13 15:20:06;;;;;;;8.55;7.40;;;;;;;;;;5016151;28;20214;-82
2022/01/13 15:22:34;;;;;;;7.43;6.22;;;;;;;;;;5015318;28;20543;-81
2022/01/13 15:25:02;;;;;;;10.38;8.70;;;;;;;;;;5016269;28;20218;-82
2022/01/13 15:27:29;;;;;;;7.85;7.05;;;;;;;;;;5015411;28;20257;-82
2022/01/13 15:29:56;;;;;;;6.95;6.15;;;;;;;;;;5015612;28;20277;-82
2022/01/13 15:32:24;;;;;;;6.68;5.93;;;;;;;;;;5015331;28;20733;-82
2022/01/13 15:34:51;;;;;;;8.40;7.40;;;;;;;;;;5015820;28;20230;-83
2022/01/13 15:37:19;;;;;;;8.07;6.82;;;;;;;;;;5016331;28;20213;-83
2022/01/13 15:39:48;;;;;;;7.15;6.45;;;;;;;;;;5016091;28;20582;-82